Time;durP1;ratioP1;P1;durP2;ratioP2;P2;SDS_P1;SDS_P2;PMS_P1;PMS_P2;Temp;Humidity;BMP_temperature;BMP_pressure;BME280_temperature;BME280_humidity;BME280_pressure;Samples;Min_cycle;Max_cycle;Signal;HPM_P1;HPM_P2
2022/08/10 00:00:39;;;;;;;6.22;4.90;;;15.90;99.90;16.00;99279.00;;;;4990800;28;87559;-61
2022/08/10 00:03:06;;;;;;;5.82;5.22;;;15.80;99.90;16.10;99269.00;;;;4983958;28;88350;-61
2022/08/10 00:05:33;;;;;;;6.93;5.10;;;16.10;99.90;16.10;99274.00;;;;4986138;28;88850;-61
2022/08/10 00:08:00;;;;;;;5.15;4.70;;;;;16.00;99272.00;;;;4990273;28;87768;-61
2022/08/10 00:10:26;;;;;;;8.05;5.50;;;16.10;99.90;16.10;99274.00;;;;4992988;28;87540;-61
2022/08/10 00:12:53;;;;;;;5.60;4.97;;;16.10;99.90;16.10;99270.00;;;;4992120;28;88434;-61
2022/08/10 00:15:22;;;;;;;6.10;4.35;;;16.00;99.90;16.10;99278.00;;;;4990342;28;88019;-61
2022/08/10 00:17:49;;;;;;;7.38;4.68;;;;;16.00;99285.00;;;;4997308;28;87474;-61
2022/08/10 00:20:16;;;;;;;6.20;3.90;;;15.80;99.90;16.00;99285.00;;;;4990961;28;89835;-61
2022/08/10 00:22:42;;;;;;;4.82;3.60;;;15.70;99.90;16.00;99286.00;;;;4994282;28;89234;-61
2022/08/10 00:25:09;;;;;;;3.90;3.58;;;15.90;99.90;16.00;99283.00;;;;4994665;28;87164;-61
2022/08/10 00:27:36;;;;;;;5.90;4.05;;;16.00;99.90;16.00;99283.00;;;;4992757;28;87376;-61
2022/08/10 00:30:06;;;;;;;4.70;4.18;;;15.90;99.90;16.00;99292.00;;;;4996060;28;87507;-61
2022/08/10 00:32:32;;;;;;;5.43;3.65;;;16.10;99.90;16.00;99288.00;;;;4992435;28;87390;-61
2022/08/10 00:34:58;;;;;;;6.13;3.95;;;15.80;99.90;16.00;99289.00;;;;4994808;28;87160;-61
2022/08/10 00:37:25;;;;;;;6.40;3.60;;;;;16.00;99284.00;;;;4994388;28;87544;-61
2022/08/10 00:39:51;;;;;;;6.47;3.50;;;15.60;99.90;15.90;99285.00;;;;4973871;28;88575;-60
2022/08/10 00:42:18;;;;;;;6.78;4.00;;;;;15.90;99288.00;;;;4990117;28;87875;-61
2022/08/10 00:44:48;;;;;;;5.72;3.78;;;16.10;99.90;16.00;99289.00;;;;4992068;28;87877;-62
2022/08/10 00:47:17;;;;;;;5.70;3.13;;;15.90;99.90;16.10;99275.00;;;;4991080;28;87237;-61
2022/08/10 00:49:44;;;;;;;5.95;3.53;;;;;16.00;99276.00;;;;4990163;28;87714;-62
2022/08/10 00:52:13;;;;;;;4.40;3.63;;;15.80;99.90;16.00;99286.00;;;;4989548;28;87607;-62
2022/08/10 00:54:42;;;;;;;4.35;3.65;;;16.10;99.90;16.00;99282.00;;;;4998185;28;87496;-62
2022/08/10 00:57:10;;;;;;;6.85;3.60;;;16.00;99.90;16.00;99289.00;;;;4994956;28;87038;-61
2022/08/10 00:59:36;;;;;;;4.15;3.75;;;15.90;99.90;16.00;99290.00;;;;4987346;28;87026;-62
2022/08/10 01:02:03;;;;;;;7.28;3.88;;;;;15.90;99290.00;;;;4992826;28;88450;-62
2022/08/10 01:04:29;;;;;;;4.18;3.60;;;15.50;99.90;15.90;99280.00;;;;4992852;28;87391;-62
2022/08/10 01:07:20;;;;;;;4.47;3.33;;;15.70;99.90;15.80;99282.00;;;;4989074;28;87144;-62
2022/08/10 01:10:27;;;;;;;5.45;3.60;;;15.70;99.90;15.80;99278.00;;;;4996731;28;88532;-66
2022/08/10 01:13:09;;;;;;;7.10;3.85;;;15.40;99.90;15.80;99265.00;;;;4996414;28;88239;-66
2022/08/10 01:16:03;;;;;;;4.68;3.92;;;15.70;99.90;15.80;99272.00;;;;4996021;28;87789;-66
2022/08/10 01:18:41;;;;;;;5.38;3.90;;;15.90;99.90;15.90;99276.00;;;;4989845;28;87427;-66
2022/08/10 01:21:38;;;;;;;4.70;3.70;;;16.10;99.90;15.80;99268.00;;;;4991323;28;88814;-66
2022/08/10 01:24:27;;;;;;;4.05;3.25;;;15.50;99.90;15.70;99262.00;;;;4990151;28;87249;-66
2022/08/10 01:27:39;;;;;;;4.90;4.00;;;15.40;99.90;15.80;99272.00;;;;4999557;28;87016;-66
2022/08/10 01:30:07;;;;;;;4.35;3.65;;;16.10;99.90;15.80;99276.00;;;;4995049;28;86367;-65
2022/08/10 01:33:17;;;;;;;4.25;3.40;;;15.60;99.90;15.70;99273.00;;;;4993251;28;87696;-65
2022/08/10 01:35:57;;;;;;;3.70;3.30;;;14.90;99.90;15.60;99272.00;;;;4988420;28;87505;-66
2022/08/10 01:38:28;;;;;;;4.70;3.22;;;15.60;99.90;15.70;99278.00;;;;4991648;28;88008;-66
2022/08/10 01:41:06;;;;;;;4.38;3.05;;;16.10;99.90;15.70;99287.00;;;;4993413;28;87039;-66
2022/08/10 01:43:38;;;;;;;5.20;3.65;;;15.70;99.90;15.70;99289.00;;;;4996640;28;88696;-66
2022/08/10 01:46:05;;;;;;;4.47;3.20;;;15.60;99.90;15.70;99294.00;;;;4992378;28;87481;-66
2022/08/10 01:48:37;;;;;;;7.05;4.10;;;15.50;99.90;15.60;99290.00;;;;4992310;28;87261;-66
2022/08/10 01:51:17;;;;;;;6.80;3.45;;;15.70;99.90;15.60;99299.00;;;;4991342;28;87430;-66
2022/08/10 01:54:06;;;;;;;5.95;3.40;;;14.40;99.90;15.60;99293.00;;;;4978768;28;87781;-66
2022/08/10 01:56:38;;;;;;;6.28;3.50;;;15.50;99.90;15.60;99304.00;;;;4996294;28;87325;-66
2022/08/10 01:59:12;;;;;;;6.85;3.35;;;15.60;99.90;15.60;99285.00;;;;4995719;28;86952;-66
2022/08/10 02:01:46;;;;;;;4.53;3.20;;;15.50;99.90;15.70;99283.00;;;;4992254;28;86937;-66
2022/08/10 02:04:16;;;;;;;3.47;3.17;;;15.60;99.90;15.70;99290.00;;;;4996999;28;88549;-66
2022/08/10 02:06:53;;;;;;;3.78;3.38;;;15.30;99.90;15.70;99292.00;;;;4992669;28;88239;-66
2022/08/10 02:09:29;;;;;;;3.40;2.85;;;15.60;99.90;15.80;99293.00;;;;4994103;28;87486;-65
2022/08/10 02:12:02;;;;;;;5.05;3.08;;;15.70;99.90;15.80;99300.00;;;;4995582;28;87086;-66
2022/08/10 02:14:33;;;;;;;5.00;3.13;;;15.80;99.90;15.90;99315.00;;;;4992658;28;87508;-65
2022/08/10 02:17:07;;;;;;;3.72;3.10;;;15.90;99.90;15.90;99308.00;;;;4989133;28;87534;-67
2022/08/10 02:19:38;;;;;;;4.40;2.83;;;15.90;99.90;16.00;99307.00;;;;5000072;28;86991;-66
2022/08/10 02:22:08;;;;;;;2.83;2.35;;;15.90;99.90;16.00;99298.00;;;;4993162;28;86444;-66
2022/08/10 02:24:36;;;;;;;3.55;2.65;;;15.60;99.90;16.10;99307.00;;;;4991364;28;89383;-66
2022/08/10 02:27:04;;;;;;;3.88;3.15;;;16.00;99.90;16.10;99313.00;;;;4991266;28;88326;-62
2022/08/10 02:29:31;;;;;;;3.90;2.63;;;16.10;99.90;16.20;99297.00;;;;4991850;28;88445;-62
2022/08/10 02:31:58;;;;;;;3.00;2.67;;;16.00;99.90;16.20;99306.00;;;;4998091;28;87112;-62
2022/08/10 02:34:25;;;;;;;7.00;2.90;;;16.10;99.90;16.30;99316.00;;;;4994647;28;87651;-61
2022/08/10 02:36:55;;;;;;;5.45;2.45;;;16.20;99.90;16.30;99310.00;;;;4973827;28;88435;-62
2022/08/10 02:39:23;;;;;;;3.08;2.45;;;16.10;99.90;16.30;99310.00;;;;4992307;28;87063;-61
2022/08/10 02:42:00;;;;;;;5.28;2.70;;;16.20;99.90;16.30;99298.00;;;;4993241;28;87070;-61
2022/08/10 02:44:58;;;;;;;3.22;2.00;;;16.20;99.90;16.30;99293.00;;;;4994946;28;87498;-61
2022/08/10 02:47:53;;;;;;;3.22;2.30;;;16.10;99.90;16.40;99299.00;;;;4992269;28;86489;-61
2022/08/10 02:50:32;;;;;;;6.82;2.70;;;16.20;99.90;16.40;99306.00;;;;4993669;28;86980;-61
2022/08/10 02:53:18;;;;;;;3.30;2.40;;;16.00;99.90;16.50;99293.00;;;;4990918;28;87109;-61
2022/08/10 02:55:58;;;;;;;3.53;2.08;;;16.40;99.90;16.60;99310.00;;;;5001145;28;89105;-62
2022/08/10 02:58:40;;;;;;;3.97;2.10;;;16.40;99.90;16.60;99316.00;;;;4990320;28;88276;-62
2022/08/10 03:01:12;;;;;;;2.63;2.30;;;16.20;99.90;16.60;99319.00;;;;4998559;28;87585;-62
2022/08/10 03:03:59;;;;;;;3.72;2.30;;;16.70;99.90;16.60;99311.00;;;;4999146;28;87102;-62
2022/08/10 03:06:34;;;;;;;3.22;2.30;;;16.60;99.90;16.60;99313.00;;;;4998738;28;88775;-62
2022/08/10 03:09:06;;;;;;;6.53;2.70;;;16.60;99.90;16.70;99289.00;;;;4996895;28;88582;-61
2022/08/10 03:11:34;;;;;;;3.35;2.00;;;16.60;99.90;16.90;99309.00;;;;5000626;28;86987;-62
2022/08/10 03:14:02;;;;;;;3.28;2.20;;;16.80;99.90;17.00;99293.00;;;;4989209;28;86236;-62
2022/08/10 03:16:29;;;;;;;6.47;2.38;;;16.80;99.90;17.10;99298.00;;;;4990302;28;87544;-62
2022/08/10 03:18:59;;;;;;;3.50;1.77;;;17.20;99.90;17.40;99297.00;;;;5000609;28;88438;-63
2022/08/10 03:21:28;;;;;;;4.00;2.28;;;17.70;99.90;17.80;99310.00;;;;5000983;28;87777;-62
2022/08/10 03:23:57;;;;;;;3.85;2.08;;;17.80;99.90;17.80;99306.00;;;;4998734;28;87042;-62
2022/08/10 03:26:25;;;;;;;4.07;1.70;;;17.40;99.90;17.70;99306.00;;;;4990258;28;87725;-62
2022/08/10 03:28:52;;;;;;;4.97;1.83;;;17.70;99.90;17.60;99300.00;;;;4992906;28;88295;-62
2022/08/10 03:31:19;;;;;;;7.20;2.28;;;17.20;99.90;17.40;99308.00;;;;4991155;28;87000;-62
2022/08/10 03:33:46;;;;;;;9.27;2.50;;;17.40;99.90;17.20;99289.00;;;;4999327;28;87040;-62
2022/08/10 03:36:12;;;;;;;5.07;2.35;;;;;17.00;99294.00;;;;4993882;28;88644;-62
2022/08/10 03:38:39;;;;;;;4.93;2.40;;;;;17.00;99296.00;;;;4997411;28;87386;-62
2022/08/10 03:41:10;;;;;;;5.10;2.53;;;16.30;99.90;17.00;99300.00;;;;4992223;28;87093;-62
2022/08/10 03:43:38;;;;;;;4.05;2.22;;;17.10;99.90;16.90;99308.00;;;;4995491;28;87045;-62
2022/08/10 03:46:09;;;;;;;2.70;2.05;;;16.70;99.90;16.90;99308.00;;;;4985544;28;89608;-62
2022/08/10 03:48:37;;;;;;;3.20;2.20;;;17.20;99.90;17.30;99309.00;;;;4973447;28;88253;-62
2022/08/10 03:51:05;;;;;;;2.60;1.95;;;17.60;99.90;17.90;99310.00;;;;4988542;28;87051;-62
2022/08/10 03:53:33;;;;;;;6.13;2.05;;;18.40;99.90;18.10;99294.00;;;;4986514;28;87702;-62
2022/08/10 03:56:00;;;;;;;5.57;2.38;;;18.50;99.90;18.30;99291.00;;;;4986533;28;88821;-62
2022/08/10 03:58:27;;;;;;;4.05;2.10;;;18.10;99.90;18.40;99309.00;;;;4999443;28;87603;-62
2022/08/10 04:00:55;;;;;;;6.03;2.20;;;18.10;99.90;18.40;99309.00;;;;4992976;28;87123;-63
2022/08/10 04:03:21;;;;;;;4.72;1.98;;;18.50;99.90;18.50;99300.00;;;;4990701;28;87228;-62
2022/08/10 04:05:47;;;;;;;3.65;1.98;;;18.50;99.90;18.50;99308.00;;;;4991784;28;87553;-62
2022/08/10 04:08:14;;;;;;;2.95;2.10;;;;;19.20;99308.00;;;;4996879;28;88688;-61
2022/08/10 04:10:40;;;;;;;6.05;2.30;;;;;19.60;99309.00;;;;4989446;28;87979;-61
2022/08/10 04:13:07;;;;;;;4.13;2.17;;;;;19.50;99313.00;;;;4990090;28;87299;-61
2022/08/10 04:15:33;;;;;;;6.18;2.22;;;;;19.70;99310.00;;;;4989853;28;87765;-61
2022/08/10 04:18:00;;;;;;;7.82;1.95;;;;;19.60;99310.00;;;;4994971;28;88236;-61
2022/08/10 04:20:36;;;;;;;4.03;1.98;;;18.80;99.90;19.20;99320.00;;;;4992481;28;87094;-61
2022/08/10 04:23:17;;;;;;;3.58;1.80;;;18.70;99.90;19.00;99306.00;;;;4995612;28;87028;-61
2022/08/10 04:25:44;;;;;;;4.85;2.05;;;;;19.00;99313.00;;;;4984324;28;87403;-62
2022/08/10 04:28:11;;;;;;;3.15;1.58;;;19.00;99.90;19.30;99314.00;;;;4991999;28;87793;-62
2022/08/10 04:30:39;;;;;;;2.90;1.50;;;19.40;99.90;19.80;99316.00;;;;4996087;28;87186;-61
2022/08/10 04:33:10;;;;;;;3.33;1.45;;;19.10;99.90;19.50;99335.00;;;;4999706;28;86947;-61
2022/08/10 04:35:37;;;;;;;3.20;2.13;;;19.00;99.90;19.30;99326.00;;;;4993448;28;88595;-61
2022/08/10 04:38:04;;;;;;;5.28;2.05;;;19.30;99.90;19.60;99322.00;;;;4991672;28;89583;-62
2022/08/10 04:40:31;;;;;;;2.35;1.75;;;;;19.80;99335.00;;;;4989321;28;87821;-62
2022/08/10 04:43:03;;;;;;;2.70;1.52;;;19.10;99.90;19.50;99342.00;;;;4993068;28;88730;-61
2022/08/10 04:45:30;;;;;;;6.28;1.75;;;18.80;99.90;19.10;99336.00;;;;4993809;28;88214;-61
2022/08/10 04:47:57;;;;;;;4.93;1.80;;;;;19.00;99330.00;;;;4995585;28;87803;-61
2022/08/10 04:50:23;;;;;;;5.18;1.80;;;;;19.20;99323.00;;;;4997791;28;88295;-61
2022/08/10 04:52:51;;;;;;;7.75;2.53;;;19.30;99.90;19.60;99335.00;;;;4994360;28;86399;-61
2022/08/10 04:55:18;;;;;;;6.65;1.95;;;;;20.10;99339.00;;;;4992816;28;87441;-61
2022/08/10 04:57:44;;;;;;;4.40;1.40;;;;;20.60;99334.00;;;;4992093;28;87195;-61
2022/08/10 05:00:11;;;;;;;3.08;1.60;;;;;20.70;99340.00;;;;4994289;28;87975;-63
2022/08/10 05:02:37;;;;;;;2.83;1.58;;;;;20.40;99335.00;;;;4991873;28;87178;-62
2022/08/10 05:05:04;;;;;;;3.55;1.75;;;;;19.90;99339.00;;;;4992355;28;87760;-61
2022/08/10 05:07:31;;;;;;;3.63;1.73;;;;;19.60;99333.00;;;;4994092;28;88308;-60
2022/08/10 05:09:57;;;;;;;2.72;1.83;;;;;19.50;99326.00;;;;4986401;28;87226;-62
2022/08/10 05:12:24;;;;;;;3.60;1.50;;;;;19.30;99334.00;;;;4990436;28;86980;-62
2022/08/10 05:14:51;;;;;;;3.30;1.63;;;;;18.90;99328.00;;;;4993460;28;87375;-62
2022/08/10 05:17:18;;;;;;;3.28;1.60;;;18.40;99.90;18.70;99319.00;;;;4993326;28;87439;-62
2022/08/10 05:19:44;;;;;;;4.47;1.67;;;18.60;99.90;18.40;99313.00;;;;5002311;28;88196;-61
2022/08/10 05:22:11;;;;;;;5.13;1.58;;;;;18.50;99311.00;;;;4997673;28;87066;-62
2022/08/10 05:24:37;;;;;;;3.53;1.80;;;;;18.60;99316.00;;;;4998062;28;88627;-62
2022/08/10 05:27:05;;;;;;;4.18;1.75;;;;;18.60;99324.00;;;;4996240;28;88991;-61
2022/08/10 05:29:32;;;;;;;4.35;1.42;;;18.40;99.90;18.70;99312.00;;;;4996636;28;87443;-62
2022/08/10 05:31:59;;;;;;;6.97;1.70;;;;;18.80;99314.00;;;;4999002;28;87031;-62
2022/08/10 05:34:27;;;;;;;3.92;1.88;;;;;18.80;99322.00;;;;4993228;28;87457;-63
2022/08/10 05:36:55;;;;;;;5.07;1.55;;;18.60;99.90;18.90;99316.00;;;;4989597;28;87260;-61
2022/08/10 05:39:24;;;;;;;3.55;1.90;;;;;19.00;99324.00;;;;4979246;28;87096;-62
2022/08/10 05:41:53;;;;;;;4.63;1.48;;;18.70;99.90;19.20;99314.00;;;;4992475;28;86373;-61
2022/08/10 05:44:24;;;;;;;3.70;2.10;;;18.90;99.90;19.30;99309.00;;;;4993966;28;88131;-62
2022/08/10 05:46:50;;;;;;;2.27;1.40;;;;;19.40;99323.00;;;;4996241;28;87458;-61
2022/08/10 05:49:17;;;;;;;4.35;1.33;;;;;19.50;99330.00;;;;4993194;28;88288;-61
2022/08/10 05:51:43;;;;;;;4.45;1.58;;;19.10;99.90;19.60;99326.00;;;;4994091;28;86992;-61
2022/08/10 05:54:16;;;;;;;2.35;1.05;;;;;19.90;99334.00;;;;4995679;28;87779;-62
2022/08/10 05:56:45;;;;;;;4.57;1.30;;;19.80;99.90;20.20;99334.00;;;;4991159;28;87286;-62
2022/08/10 05:59:15;;;;;;;6.38;1.42;;;19.80;99.90;20.20;99320.00;;;;4994792;28;87041;-62
2022/08/10 06:01:48;;;;;;;3.65;1.55;;;19.70;99.90;20.10;99337.00;;;;4993358;28;87058;-64
2022/08/10 06:04:28;;;;;;;5.72;1.60;;;19.60;99.90;20.00;99342.00;;;;4991903;28;87708;-62
2022/08/10 06:06:59;;;;;;;5.97;1.70;;;19.80;99.90;20.20;99335.00;;;;4993746;28;87758;-62
2022/08/10 06:09:26;;;;;;;5.65;1.50;;;19.70;99.90;19.90;99352.00;;;;4996696;28;87159;-61
2022/08/10 06:11:54;;;;;;;3.72;1.42;;;19.50;99.90;19.90;99353.00;;;;4993579;28;87453;-61
2022/08/10 06:17:06;;;;;;;2.75;1.30;;;19.70;99.90;20.10;99384.00;;;;4992738;28;89368;-62
2022/08/10 06:19:34;;;;;;;7.85;1.40;;;19.70;99.90;20.10;99364.00;;;;4991532;28;87006;-62
2022/08/10 06:22:01;;;;;;;5.25;1.58;;;19.80;99.90;20.00;99363.00;;;;4989787;28;87013;-62
2022/08/10 06:24:30;;;;;;;4.57;1.70;;;19.80;99.90;20.00;99366.00;;;;4992573;28;87487;-62
2022/08/10 06:26:57;;;;;;;4.45;1.30;;;;;19.90;99385.00;;;;4991939;28;87389;-62
2022/08/10 06:29:25;;;;;;;4.65;1.80;;;19.60;99.90;19.90;99385.00;;;;4990970;28;87250;-62
2022/08/10 06:31:53;;;;;;;4.95;1.55;;;19.60;99.90;19.90;99374.00;;;;4993267;28;86379;-61
2022/08/10 06:34:50;;;;;;;2.35;1.40;;;19.60;99.90;19.90;99379.00;;;;4979599;28;87582;-61
2022/08/10 06:37:19;;;;;;;2.22;1.63;;;19.80;99.90;20.00;99380.00;;;;4988329;28;87983;-62
2022/08/10 06:39:47;;;;;;;4.90;1.73;;;;;20.00;99388.00;;;;4976048;28;89152;-62
2022/08/10 06:42:22;;;;;;;3.70;1.85;;;19.70;99.90;19.90;99382.00;;;;4994093;28;87195;-62
2022/08/10 06:45:12;;;;;;;4.70;1.40;;;20.00;99.90;20.30;99389.00;;;;5002625;28;87623;-62
2022/08/10 06:47:53;;;;;;;3.35;1.50;;;19.50;99.90;20.20;99392.00;;;;5002249;28;88520;-62
2022/08/10 06:50:59;;;;;;;5.03;1.30;;;20.30;99.90;20.40;99389.00;;;;4994265;28;87173;-61
2022/08/10 06:53:35;;;;;;;5.28;1.83;;;20.00;99.90;20.30;99383.00;;;;4988526;28;87859;-61
2022/08/10 06:56:10;;;;;;;4.60;1.88;;;19.70;99.90;20.00;99377.00;;;;4997823;28;87334;-62
2022/08/10 06:58:52;;;;;;;2.50;1.48;;;20.00;99.90;20.30;99377.00;;;;4975177;28;87237;-62
2022/08/10 07:01:23;;;;;;;4.00;1.40;;;20.10;99.90;20.40;99395.00;;;;4975103;28;87072;-63
2022/08/10 07:04:11;;;;;;;2.67;1.57;;;20.20;99.90;20.40;99389.00;;;;4988528;28;87011;-63
2022/08/10 07:06:44;;;;;;;8.13;1.80;;;20.50;99.90;20.60;99379.00;;;;4997274;28;88516;-63
2022/08/10 07:09:13;;;;;;;4.03;1.70;;;20.40;99.90;20.70;99379.00;;;;4990277;28;88386;-62
2022/08/10 07:11:43;;;;;;;5.82;1.80;;;20.50;99.90;20.80;99387.00;;;;4975901;28;87142;-63
2022/08/10 07:14:11;;;;;;;2.67;1.58;;;20.60;99.90;20.90;99381.00;;;;4992723;28;87115;-62
2022/08/10 07:16:41;;;;;;;4.20;1.63;;;20.90;99.90;21.20;99375.00;;;;4999889;28;89344;-62
2022/08/10 07:19:12;;;;;;;3.88;1.63;;;20.90;99.90;21.30;99387.00;;;;4989039;28;88063;-62
2022/08/10 07:21:41;;;;;;;6.97;1.90;;;20.80;99.90;21.10;99383.00;;;;4985869;28;87352;-62
2022/08/10 07:24:13;;;;;;;8.45;1.50;;;20.80;99.90;21.10;99394.00;;;;4990971;28;86374;-62
2022/08/10 07:26:47;;;;;;;9.07;1.80;;;20.70;99.90;21.20;99389.00;;;;4992319;28;87075;-63
2022/08/10 07:29:16;;;;;;;2.63;1.65;;;20.80;99.90;21.20;99392.00;;;;4973435;28;89381;-63
2022/08/10 07:31:43;;;;;;;5.25;1.80;;;20.10;99.90;21.10;99398.00;;;;5001445;28;88400;-63
2022/08/10 07:34:13;;;;;;;4.97;1.63;;;20.80;99.90;21.20;99394.00;;;;5001792;28;87029;-63
2022/08/10 07:36:41;;;;;;;5.10;1.50;;;21.00;99.90;21.30;99392.00;;;;4993195;28;89184;-63
2022/08/10 07:39:09;;;;;;;8.15;1.60;;;21.10;99.90;21.30;99392.00;;;;4989590;28;87883;-63
2022/08/10 07:41:41;;;;;;;6.18;1.70;;;21.30;99.90;21.30;99401.00;;;;4988066;28;86940;-63
2022/08/10 07:44:11;;;;;;;3.45;1.40;;;20.80;99.90;21.10;99405.00;;;;4990839;28;87140;-63
2022/08/10 07:46:46;;;;;;;5.55;1.65;;;20.90;99.90;21.30;99397.00;;;;4989919;28;87644;-63
2022/08/10 07:49:21;;;;;;;3.08;1.50;;;20.90;99.90;21.20;99401.00;;;;4994961;28;86541;-63
2022/08/10 07:51:51;;;;;;;3.63;1.55;;;20.90;99.90;21.10;99385.00;;;;4986005;28;86946;-63
2022/08/10 07:54:19;;;;;;;4.18;1.40;;;21.00;99.90;21.20;99386.00;;;;4992450;28;87204;-62
2022/08/10 07:56:53;;;;;;;4.28;1.80;;;20.90;99.90;21.20;99403.00;;;;4992495;28;88275;-63
2022/08/10 07:59:53;;;;;;;2.58;1.20;;;20.70;99.90;20.80;99390.00;;;;4987526;28;88145;-62
2022/08/10 08:02:31;;;;;;;3.22;1.20;;;20.60;99.90;20.70;99390.00;;;;4989713;28;87071;-63
2022/08/10 08:05:03;;;;;;;5.43;1.20;;;20.50;99.90;20.80;99389.00;;;;4989881;28;87409;-63
2022/08/10 08:07:31;;;;;;;4.35;1.70;;;20.50;99.90;20.60;99387.00;;;;4994286;28;88550;-63
2022/08/10 08:10:00;;;;;;;3.97;1.38;;;20.20;99.90;20.40;99392.00;;;;4989033;28;87245;-63
2022/08/10 08:12:27;;;;;;;4.03;1.40;;;20.10;99.90;20.30;99389.00;;;;5001863;28;87064;-63
2022/08/10 08:14:56;;;;;;;4.70;1.35;;;20.20;99.90;20.40;99410.00;;;;4990747;28;86450;-63
2022/08/10 08:17:25;;;;;;;4.43;1.33;;;20.40;99.90;20.50;99394.00;;;;4996807;28;88233;-63
2022/08/10 08:19:56;;;;;;;4.72;1.10;;;20.40;99.90;20.60;99391.00;;;;4986599;28;87416;-63
2022/08/10 08:22:23;;;;;;;2.92;1.33;;;20.20;99.90;20.50;99406.00;;;;4990729;28;88519;-63
2022/08/10 08:24:51;;;;;;;4.68;1.30;;;20.20;99.90;20.40;99391.00;;;;4969588;28;87033;-63
2022/08/10 08:27:18;;;;;;;3.40;1.55;;;20.00;99.90;20.30;99385.00;;;;4996967;28;87773;-63
2022/08/10 08:29:50;;;;;;;5.10;1.23;;;20.10;99.90;20.30;99383.00;;;;4988351;28;87544;-63
2022/08/10 08:32:26;;;;;;;3.00;1.00;;;20.00;99.90;20.20;99377.00;;;;4982577;28;86836;-63
2022/08/10 08:35:09;;;;;;;2.90;1.25;;;20.00;99.90;20.30;99383.00;;;;4983440;28;87092;-63
2022/08/10 08:37:38;;;;;;;4.65;2.05;;;20.10;99.90;20.30;99393.00;;;;4989414;28;88252;-62
2022/08/10 08:40:10;;;;;;;3.47;1.20;;;20.10;99.90;20.30;99380.00;;;;4991410;28;86831;-63
2022/08/10 08:43:15;;;;;;;3.58;1.40;;;20.10;99.90;20.40;99376.00;;;;4992596;28;87042;-63
2022/08/10 08:46:05;;;;;;;4.93;1.20;;;20.40;99.90;20.60;99373.00;;;;4993359;28;86923;-63
2022/08/10 08:48:48;;;;;;;3.70;1.65;;;;;20.40;99367.00;;;;4992428;28;88764;-63
2022/08/10 08:52:12;;;;;;;10.75;1.83;;;20.20;99.90;20.50;99370.00;;;;4986403;28;88643;-62
2022/08/10 08:54:57;;;;;;;3.78;1.55;;;;;20.70;99367.00;;;;4988607;28;87203;-62
2022/08/10 08:58:05;;;;;;;3.08;1.50;;;20.60;99.90;20.90;99369.00;;;;4993442;28;87363;-62
2022/08/10 09:00:51;;;;;;;2.97;1.10;;;20.60;99.90;21.00;99380.00;;;;4987441;28;86994;-62
2022/08/10 09:03:48;;;;;;;5.63;1.45;;;20.80;99.90;21.10;99384.00;;;;4992950;28;87192;-62
2022/08/10 09:07:07;;;;;;;1.40;1.10;;;20.80;99.90;21.10;99368.00;;;;4990881;28;86868;-62
2022/08/10 09:09:40;;;;;;;3.38;1.10;;;;;21.20;99362.00;;;;4995492;28;86338;-62
2022/08/10 09:12:30;;;;;;;4.38;1.38;;;21.00;99.90;21.30;99371.00;;;;4983042;28;90077;-62
2022/08/10 09:15:33;;;;;;;2.67;1.20;;;21.10;99.90;21.40;99366.00;;;;4990628;28;87356;-62
2022/08/10 09:18:07;;;;;;;3.28;1.30;;;21.10;99.90;21.40;99388.00;;;;4994629;28;87883;-62
2022/08/10 09:20:41;;;;;;;2.45;1.25;;;20.90;99.90;21.20;99373.00;;;;4980498;28;87214;-62
2022/08/10 09:23:34;;;;;;;2.25;1.20;;;21.10;99.90;21.40;99359.00;;;;4997753;28;87604;-62
2022/08/10 09:26:41;;;;;;;2.55;1.35;;;21.20;99.90;21.50;99374.00;;;;4988812;28;88357;-62
2022/08/10 09:29:14;;;;;;;3.15;1.40;;;21.30;99.90;21.60;99367.00;;;;4987315;28;87025;-62
2022/08/10 09:31:46;;;;;;;3.33;1.45;;;21.10;99.90;21.40;99364.00;;;;5000055;28;87052;-62
2022/08/10 09:34:23;;;;;;;5.63;1.20;;;21.20;99.90;21.50;99362.00;;;;4983059;28;87549;-62
2022/08/10 09:37:01;;;;;;;10.07;2.15;;;;;21.50;99358.00;;;;4970145;28;87370;-62
2022/08/10 09:40:03;;;;;;;3.67;1.33;;;21.30;99.90;21.60;99344.00;;;;4985145;28;86952;-62
2022/08/10 09:43:10;;;;;;;5.75;1.40;;;21.40;99.90;21.60;99356.00;;;;5003277;28;86939;-62
2022/08/10 09:46:24;;;;;;;4.97;1.33;;;21.30;99.90;21.70;99361.00;;;;4987797;28;89628;-63
2022/08/10 09:49:30;;;;;;;3.33;1.48;;;21.50;99.90;21.80;99359.00;;;;4990683;28;88257;-63
2022/08/10 09:52:16;;;;;;;2.75;1.10;;;21.70;99.90;21.90;99351.00;;;;4994568;28;86904;-62
2022/08/10 09:55:20;;;;;;;2.88;1.33;;;21.80;99.90;22.20;99366.00;;;;4987052;28;87372;-63
2022/08/10 09:58:24;;;;;;;1.75;1.10;;;22.00;99.90;22.40;99380.00;;;;4995987;28;88699;-63
2022/08/10 10:01:43;;;;;;;2.58;1.02;;;22.00;99.90;22.60;99369.00;;;;4990591;28;87324;-63
2022/08/10 10:04:23;;;;;;;3.38;1.27;;;22.20;99.90;22.70;99350.00;;;;4964547;28;87129;-62
2022/08/10 10:06:57;;;;;;;4.90;1.30;;;22.40;99.90;22.70;99347.00;;;;4988137;28;86111;-62
2022/08/10 10:09:42;;;;;;;3.97;1.20;;;22.60;99.90;23.10;99344.00;;;;4989658;28;87728;-62
2022/08/10 10:12:25;;;;;;;1.80;1.20;;;22.70;99.90;23.20;99354.00;;;;5003269;28;87035;-63
2022/08/10 10:15:19;;;;;;;5.25;1.40;;;22.60;99.90;23.00;99341.00;;;;4992006;28;87924;-64
2022/08/10 10:18:16;;;;;;;2.35;1.45;;;22.50;99.90;23.00;99343.00;;;;4990664;28;87464;-64
2022/08/10 10:21:13;;;;;;;1.80;1.10;;;22.60;99.90;23.00;99340.00;;;;4983561;28;87745;-63
2022/08/10 10:24:21;;;;;;;4.15;1.17;;;22.50;99.90;23.10;99342.00;;;;4985016;28;88529;-61
2022/08/10 10:27:24;;;;;;;2.97;1.00;;;23.30;99.90;23.30;99337.00;;;;4994545;28;87300;-63
2022/08/10 10:30:04;;;;;;;9.77;1.60;;;22.90;99.90;23.30;99344.00;;;;4989252;28;87061;-63
2022/08/10 10:33:13;;;;;;;3.42;1.30;;;22.80;99.90;23.30;99338.00;;;;4983087;28;87400;-62
2022/08/10 10:35:54;;;;;;;3.03;1.20;;;22.90;99.90;23.50;99336.00;;;;4972204;28;87567;-62
2022/08/10 10:38:27;;;;;;;2.75;1.10;;;22.90;99.90;23.40;99332.00;;;;4973718;28;87865;-62
2022/08/10 10:41:10;;;;;;;2.60;1.10;;;23.00;99.90;23.50;99334.00;;;;4993158;28;87135;-62
2022/08/10 10:44:15;;;;;;;2.53;1.30;;;23.00;99.90;23.60;99348.00;;;;4989861;28;88675;-62
2022/08/10 10:47:08;;;;;;;2.55;0.90;;;23.30;99.90;23.90;99343.00;;;;4991758;28;87243;-62
2022/08/10 10:50:11;;;;;;;4.63;1.10;;;23.40;99.90;23.90;99339.00;;;;4986395;28;87051;-62
2022/08/10 10:53:05;;;;;;;1.25;1.00;;;23.40;99.90;23.80;99336.00;;;;4988552;28;87976;-62
2022/08/10 10:56:10;;;;;;;3.65;1.20;;;23.40;99.90;23.60;99338.00;;;;4990954;28;90056;-63
2022/08/10 10:58:52;;;;;;;3.88;1.10;;;23.00;99.90;23.50;99326.00;;;;4985001;28;88362;-63
2022/08/10 11:01:58;;;;;;;2.40;1.08;;;23.00;99.90;23.50;99341.00;;;;4987680;28;87519;-63
2022/08/10 11:04:38;;;;;;;2.35;1.13;;;23.20;99.90;23.70;99347.00;;;;4993871;28;86760;-63
2022/08/10 11:07:31;;;;;;;1.60;1.05;;;23.30;99.90;23.80;99335.00;;;;4998163;28;86959;-62
2022/08/10 11:10:08;;;;;;;2.88;1.38;;;23.10;99.90;23.50;99338.00;;;;4994568;28;87317;-63
2022/08/10 11:13:24;;;;;;;2.92;1.27;;;23.10;99.90;23.60;99335.00;;;;4982411;28;87891;-63
2022/08/10 11:15:50;;;;;;;2.55;1.05;;;;;23.90;99344.00;;;;4995852;28;87037;-63
2022/08/10 11:18:34;;;;;;;3.38;1.30;;;23.50;99.90;24.00;99339.00;;;;4985996;28;87777;-63
2022/08/10 11:21:19;;;;;;;2.55;1.02;;;;;23.90;99332.00;;;;4983461;28;87414;-63
2022/08/10 11:24:12;;;;;;;2.75;1.30;;;23.40;99.90;23.90;99339.00;;;;4989833;28;87057;-63
2022/08/10 11:26:46;;;;;;;3.03;1.30;;;;;23.80;99330.00;;;;4997551;28;87039;-63
2022/08/10 11:29:58;;;;;;;3.20;1.33;;;23.40;99.90;23.90;99346.00;;;;4994859;28;87428;-63
2022/08/10 11:33:05;;;;;;;4.40;1.50;;;23.50;99.90;23.90;99334.00;;;;4984591;28;86250;-63
2022/08/10 11:36:04;;;;;;;2.05;1.17;;;23.60;99.90;23.90;99332.00;;;;4986583;28;87012;-64
2022/08/10 11:39:13;;;;;;;2.65;1.20;;;23.40;99.90;23.80;99333.00;;;;4986879;28;86954;-62
2022/08/10 11:42:15;;;;;;;5.28;1.10;;;23.40;99.90;23.80;99331.00;;;;4986740;28;89619;-63
2022/08/10 11:44:52;;;;;;;1.52;1.00;;;23.00;99.90;23.50;99336.00;;;;4994946;28;89257;-63
2022/08/10 11:47:52;;;;;;;6.72;1.10;;;23.10;99.90;23.20;99329.00;;;;4991002;28;87364;-63
2022/08/10 11:50:35;;;;;;;3.75;1.15;;;22.80;99.90;23.10;99331.00;;;;4989685;28;87703;-63
2022/08/10 11:53:07;;;;;;;6.90;1.20;;;22.90;99.90;23.40;99334.00;;;;4994728;28;87916;-63